createdAt,value
2022-08-11T00:01:22.231Z,89.60
2022-08-11T00:03:56.575Z,90.10
2022-08-11T00:06:37.323Z,90.20
2022-08-11T00:09:10.554Z,90.30
2022-08-11T00:11:46.855Z,90.60
2022-08-11T00:14:23.638Z,90.70
2022-08-11T00:17:02.316Z,91.00
2022-08-11T00:20:14.918Z,91.40
2022-08-11T00:22:24.913Z,91.60
2022-08-11T00:24:56.006Z,91.90
2022-08-11T00:27:36.687Z,92.20
2022-08-11T00:30:06.856Z,92.40
2022-08-11T00:32:35.245Z,92.80
2022-08-11T00:35:56.094Z,93.20
2022-08-11T00:37:56.129Z,93.50
2022-08-11T00:40:44.206Z,93.50
2022-08-11T00:43:28.833Z,93.40
2022-08-11T00:46:34.731Z,93.70
2022-08-11T00:49:30.384Z,93.70
2022-08-11T00:52:48.033Z,94.10
2022-08-11T00:56:07.519Z,94.30
2022-08-11T00:59:34.923Z,94.50
2022-08-11T01:02:47.694Z,94.70
2022-08-11T01:05:45.342Z,95.10
2022-08-11T01:09:17.909Z,95.60
2022-08-11T01:12:01.528Z,95.70
2022-08-11T01:15:13.453Z,96.10
2022-08-11T01:18:32.746Z,96.60
2022-08-11T01:21:17.313Z,96.80
2022-08-11T01:24:38.967Z,97.70
2022-08-11T01:27:32.431Z,98.00
2022-08-11T01:30:25.896Z,98.40
2022-08-11T01:34:09.276Z,99.00
2022-08-11T01:37:00.358Z,99.20
2022-08-11T01:39:50.523Z,99.80
2022-08-11T01:43:23.572Z,99.90
2022-08-11T01:46:21.369Z,99.90
2022-08-11T01:50:06.854Z,99.90
2022-08-11T01:52:39.415Z,99.90
2022-08-11T01:55:32.243Z,99.90
2022-08-11T01:58:44.479Z,99.90
2022-08-11T02:01:50.439Z,99.90
2022-08-11T02:04:48.070Z,99.90
2022-08-11T02:07:53.906Z,99.90
2022-08-11T02:11:06.534Z,99.90
2022-08-11T02:13:48.782Z,99.90
2022-08-11T02:16:53.255Z,99.90
2022-08-11T02:20:01.133Z,99.90
2022-08-11T02:23:07.978Z,99.90
2022-08-11T02:26:05.482Z,99.90
2022-08-11T02:28:49.851Z,99.90
2022-08-11T02:32:25.229Z,99.90
2022-08-11T02:35:03.997Z,99.90
2022-08-11T02:37:33.576Z,99.90
2022-08-11T02:40:41.690Z,99.90
2022-08-11T02:43:51.106Z,99.90
2022-08-11T02:46:37.222Z,99.90
2022-08-11T02:49:24.250Z,99.90
2022-08-11T02:52:25.893Z,99.90
2022-08-11T02:55:55.780Z,99.90
2022-08-11T02:58:27.991Z,99.90
2022-08-11T03:01:11.585Z,99.90
2022-08-11T03:04:01.155Z,99.90
2022-08-11T03:07:01.100Z,99.90
2022-08-11T03:10:11.984Z,99.90
2022-08-11T03:13:10.244Z,99.90
2022-08-11T03:16:40.194Z,99.90
2022-08-11T03:19:44.623Z,99.90
2022-08-11T03:22:34.342Z,99.90
2022-08-11T03:25:31.531Z,99.90
2022-08-11T03:28:42.711Z,99.90
2022-08-11T03:31:20.456Z,99.90
2022-08-11T03:34:14.260Z,99.90
2022-08-11T03:37:38.270Z,99.90
2022-08-11T03:40:48.248Z,99.90
2022-08-11T03:43:58.550Z,99.90
2022-08-11T03:46:47.448Z,99.90
2022-08-11T03:50:10.919Z,99.90
2022-08-11T03:52:53.458Z,99.90
2022-08-11T03:55:45.163Z,99.90
2022-08-11T03:58:41.174Z,99.90
2022-08-11T04:01:49.215Z,99.90
2022-08-11T04:05:20.268Z,99.90
2022-08-11T04:08:27.130Z,99.90
2022-08-11T04:11:31.813Z,99.90
2022-08-11T04:15:01.593Z,99.90
2022-08-11T04:18:16.572Z,99.90
2022-08-11T04:21:08.095Z,99.90
2022-08-11T04:24:33.147Z,99.90
2022-08-11T04:27:39.742Z,99.90
2022-08-11T04:30:16.812Z,99.90
2022-08-11T04:33:35.052Z,99.90
2022-08-11T04:36:59.203Z,99.90
2022-08-11T04:40:19.939Z,99.90
2022-08-11T04:43:24.369Z,99.90
2022-08-11T04:46:20.469Z,99.90
2022-08-11T04:49:43.746Z,99.90
2022-08-11T04:53:06.174Z,99.90
2022-08-11T04:56:21.264Z,99.90
2022-08-11T04:59:38.172Z,99.90
2022-08-11T05:02:57.423Z,99.90
2022-08-11T05:06:00.920Z,99.90
2022-08-11T05:08:55.010Z,99.90
2022-08-11T05:11:48.985Z,99.90
2022-08-11T05:14:48.305Z,99.90
2022-08-11T05:17:51.654Z,99.90
2022-08-11T05:20:37.682Z,99.90
2022-08-11T05:23:27.247Z,99.90
2022-08-11T05:26:46.878Z,99.90
2022-08-11T05:29:47.259Z,99.90
2022-08-11T05:32:36.997Z,99.90
2022-08-11T05:35:07.455Z,99.90
2022-08-11T05:38:02.522Z,99.90
2022-08-11T05:40:51.139Z,99.90
2022-08-11T05:44:20.625Z,99.90
2022-08-11T05:46:47.883Z,99.90
2022-08-11T05:49:34.553Z,99.90
2022-08-11T05:52:25.514Z,99.90
2022-08-11T05:55:26.082Z,99.90
2022-08-11T05:58:01.938Z,99.90
2022-08-11T06:00:29.963Z,99.90
2022-08-11T06:03:04.001Z,99.90
2022-08-11T06:05:38.415Z,99.90
2022-08-11T06:08:13.393Z,99.90
2022-08-11T06:10:44.306Z,99.90
2022-08-11T06:13:17.119Z,99.80
2022-08-11T06:16:04.922Z,99.90
2022-08-11T06:18:35.281Z,98.90
2022-08-11T06:21:08.617Z,98.90
2022-08-11T06:23:36.488Z,98.70
2022-08-11T06:26:12.456Z,97.30
2022-08-11T06:28:46.815Z,96.80
2022-08-11T06:31:26.175Z,96.70
2022-08-11T06:34:08.209Z,96.70
2022-08-11T06:36:51.416Z,95.90
2022-08-11T06:40:07.266Z,96.00
2022-08-11T06:43:02.168Z,95.00
2022-08-11T06:45:37.557Z,95.00
2022-08-11T06:48:08.045Z,94.60
2022-08-11T06:50:53.805Z,94.30
2022-08-11T06:53:21.671Z,94.70
2022-08-11T06:56:09.011Z,94.00
2022-08-11T06:58:59.454Z,93.40
2022-08-11T07:01:47.708Z,92.70
2022-08-11T07:04:31.476Z,92.70
2022-08-11T07:07:52.663Z,92.30
2022-08-11T07:11:21.855Z,91.80
2022-08-11T07:14:12.631Z,91.20
2022-08-11T07:16:45.078Z,90.10
2022-08-11T07:19:36.169Z,89.40
2022-08-11T07:22:25.962Z,88.50
2022-08-11T07:25:17.137Z,86.90
2022-08-11T07:28:06.770Z,86.50
2022-08-11T07:30:41.303Z,83.80
2022-08-11T07:33:11.690Z,82.10
2022-08-11T07:36:02.603Z,82.20
2022-08-11T07:38:47.341Z,80.60
2022-08-11T07:41:18.826Z,79.60
2022-08-11T07:43:51.714Z,79.70
2022-08-11T07:46:39.182Z,80.70
2022-08-11T07:49:28.283Z,79.90
2022-08-11T07:52:21.652Z,77.70
2022-08-11T07:54:51.154Z,75.60
2022-08-11T07:57:50.172Z,74.40
2022-08-11T08:00:47.069Z,74.20
2022-08-11T08:03:38.771Z,72.80
2022-08-11T08:06:41.517Z,72.80
2022-08-11T08:09:28.064Z,70.70
2022-08-11T08:12:15.339Z,71.40
2022-08-11T08:15:01.441Z,71.10
2022-08-11T08:18:09.376Z,69.40
2022-08-11T08:20:49.784Z,69.50
2022-08-11T08:23:34.438Z,68.20
2022-08-11T08:26:26.768Z,67.10
2022-08-11T08:29:17.679Z,65.40
2022-08-11T08:31:46.650Z,65.20
2022-08-11T08:34:15.669Z,63.50
2022-08-11T08:36:48.054Z,63.30
2022-08-11T08:39:16.732Z,62.70
2022-08-11T08:41:45.315Z,63.10
2022-08-11T08:44:37.100Z,63.00
2022-08-11T08:47:06.147Z,62.30
2022-08-11T08:49:41.680Z,61.50
2022-08-11T08:52:30.632Z,61.80
2022-08-11T08:55:09.750Z,60.80
2022-08-11T08:57:40.174Z,60.10
2022-08-11T09:00:12.980Z,59.60
2022-08-11T09:02:44.985Z,59.00
2022-08-11T09:05:13.246Z,59.30
2022-08-11T09:07:41.686Z,58.80
2022-08-11T09:10:11.159Z,58.00
2022-08-11T09:12:42.645Z,58.00
2022-08-11T09:15:12.065Z,57.40
2022-08-11T09:18:06.056Z,56.40
2022-08-11T09:20:37.087Z,57.50
2022-08-11T09:26:42.152Z,55.80
2022-08-11T09:29:11.669Z,55.60
2022-08-11T09:31:40.446Z,56.50
2022-08-11T09:34:11.079Z,54.80
2022-08-11T09:37:01.450Z,54.30
2022-08-11T09:39:50.783Z,53.30
2022-08-11T09:42:23.360Z,52.70
2022-08-11T09:44:53.213Z,52.50
2022-08-11T09:47:29.464Z,52.90
2022-08-11T09:50:01.568Z,52.00
2022-08-11T09:52:57.232Z,51.40
2022-08-11T09:55:28.204Z,51.40
2022-08-11T09:58:42.273Z,51.30
2022-08-11T10:01:02.981Z,50.90
2022-08-11T10:03:37.127Z,50.70
2022-08-11T10:06:46.816Z,50.80
2022-08-11T10:09:21.286Z,50.70
2022-08-11T10:11:58.257Z,50.60
2022-08-11T10:14:48.052Z,50.10
2022-08-11T10:17:20.820Z,49.90
2022-08-11T10:20:05.485Z,48.60
2022-08-11T10:22:54.038Z,48.80
2022-08-11T10:25:40.787Z,48.30
2022-08-11T10:28:29.108Z,48.90
2022-08-11T10:31:16.977Z,48.20
2022-08-11T10:34:03.429Z,47.80
2022-08-11T10:36:53.917Z,49.50
2022-08-11T10:39:22.705Z,49.00
2022-08-11T10:42:14.333Z,50.10
2022-08-11T10:44:53.497Z,49.00
2022-08-11T10:47:36.774Z,48.90
2022-08-11T10:50:32.948Z,49.80
2022-08-11T10:53:19.695Z,49.00
2022-08-11T10:56:06.815Z,48.20
2022-08-11T10:58:52.178Z,48.20
2022-08-11T11:01:30.395Z,47.90
2022-08-11T11:04:05.568Z,47.60
2022-08-11T11:07:13.744Z,48.10
2022-08-11T11:09:58.916Z,47.80
2022-08-11T11:12:52.572Z,47.80
2022-08-11T11:15:41.875Z,47.40
2022-08-11T11:18:22.388Z,48.00
2022-08-11T11:20:58.564Z,47.90
2022-08-11T11:23:37.060Z,48.50
2022-08-11T11:26:38.575Z,48.80
2022-08-11T11:29:31.429Z,48.50
2022-08-11T11:32:35.243Z,47.70
2022-08-11T11:35:17.038Z,49.20
2022-08-11T11:38:03.539Z,48.50
2022-08-11T11:43:18.486Z,49.60
2022-08-11T11:45:45.650Z,49.50
2022-08-11T11:48:12.846Z,50.00
2022-08-11T11:50:40.418Z,50.20
2022-08-11T11:53:11.930Z,49.70
2022-08-11T11:55:39.672Z,49.90
2022-08-11T11:58:25.793Z,49.60
2022-08-11T12:01:12.828Z,50.10
2022-08-11T12:03:40.912Z,50.80
2022-08-11T12:06:12.986Z,49.40
2022-08-11T12:08:42.163Z,49.60
2022-08-11T12:11:31.637Z,49.80
2022-08-11T12:14:04.736Z,50.40
2022-08-11T12:16:44.533Z,50.90
2022-08-11T12:19:18.684Z,50.70
2022-08-11T12:22:05.289Z,50.90
2022-08-11T12:24:55.232Z,50.70
2022-08-11T12:27:25.613Z,52.50
2022-08-11T12:30:08.614Z,50.90
2022-08-11T12:32:38.784Z,51.00
2022-08-11T12:35:07.962Z,51.30
2022-08-11T12:37:49.260Z,51.60
2022-08-11T12:41:11.575Z,50.80
2022-08-11T12:43:56.838Z,52.20
2022-08-11T12:46:35.486Z,51.50
2022-08-11T12:49:33.061Z,51.30
2022-08-11T12:52:14.418Z,52.00
2022-08-11T12:55:08.481Z,52.10
2022-08-11T12:58:07.441Z,51.10
2022-08-11T13:00:53.516Z,51.50
2022-08-11T13:03:40.930Z,51.50
2022-08-11T13:06:09.445Z,52.50
2022-08-11T13:08:39.860Z,52.50
2022-08-11T13:11:56.633Z,52.70
2022-08-11T13:14:16.923Z,52.80
2022-08-11T13:17:04.670Z,52.30
2022-08-11T13:19:34.391Z,52.30
2022-08-11T13:22:05.485Z,51.90
2022-08-11T13:24:36.462Z,51.60
2022-08-11T13:27:04.502Z,51.90
2022-08-11T13:29:31.833Z,52.00
2022-08-11T13:32:00.365Z,51.00
2022-08-11T13:34:33.319Z,51.70
2022-08-11T13:37:05.323Z,51.80
2022-08-11T13:39:36.300Z,52.00
2022-08-11T13:42:05.334Z,51.70
2022-08-11T13:44:56.718Z,52.20
2022-08-11T13:47:25.295Z,52.90
2022-08-11T13:49:53.966Z,52.10
2022-08-11T13:52:21.015Z,52.50
2022-08-11T13:54:53.144Z,51.90
2022-08-11T13:58:07.516Z,52.20
2022-08-11T14:00:13.880Z,52.60
2022-08-11T14:02:55.546Z,52.60
2022-08-11T14:05:47.993Z,52.40
2022-08-11T14:08:37.315Z,51.60
2022-08-11T14:12:22.561Z,52.30
2022-08-11T14:14:23.234Z,51.70
2022-08-11T14:16:53.849Z,51.80
2022-08-11T14:19:26.206Z,51.70
2022-08-11T14:22:08.433Z,51.50
2022-08-11T14:24:49.459Z,51.90
2022-08-11T14:28:30.020Z,52.50
2022-08-11T14:30:26.385Z,51.70
2022-08-11T14:32:56.147Z,51.60
2022-08-11T14:35:27.183Z,51.80
2022-08-11T14:37:57.132Z,51.60
2022-08-11T14:40:44.785Z,51.60
2022-08-11T14:44:13.112Z,52.10
2022-08-11T14:46:36.746Z,52.30
2022-08-11T14:49:05.355Z,52.20
2022-08-11T14:51:34.428Z,51.90
2022-08-11T14:54:23.221Z,52.10
2022-08-11T14:56:56.794Z,52.20
2022-08-11T14:59:27.039Z,51.40
2022-08-11T15:02:12.502Z,51.70
2022-08-11T15:04:40.364Z,51.90
2022-08-11T15:07:16.818Z,51.50
2022-08-11T15:10:11.639Z,51.60
2022-08-11T15:12:35.019Z,51.80
2022-08-11T15:15:36.755Z,51.90
2022-08-11T15:18:07.449Z,51.80
2022-08-11T15:20:53.956Z,51.60
2022-08-11T15:23:39.951Z,51.70
2022-08-11T15:26:19.308Z,51.70
2022-08-11T15:29:11.904Z,51.50
2022-08-11T15:31:49.410Z,51.30
2022-08-11T15:34:38.769Z,51.50
2022-08-11T15:37:32.945Z,51.50
2022-08-11T15:41:18.454Z,51.70
2022-08-11T15:44:11.856Z,51.50
2022-08-11T15:46:45.490Z,52.20
2022-08-11T15:49:23.809Z,52.20
2022-08-11T15:52:13.543Z,52.10
2022-08-11T15:54:43.054Z,52.20
2022-08-11T15:57:39.759Z,51.90
2022-08-11T16:00:28.292Z,51.10
2022-08-11T16:03:54.399Z,52.10
2022-08-11T16:06:22.573Z,51.60
2022-08-11T16:08:56.278Z,51.70
2022-08-11T16:11:25.071Z,51.90
2022-08-11T16:14:14.389Z,51.90
2022-08-11T16:16:43.902Z,52.10
2022-08-11T16:19:13.366Z,52.00
2022-08-11T16:21:43.053Z,52.20
2022-08-11T16:25:58.215Z,52.30
2022-08-11T16:27:13.657Z,52.30
2022-08-11T16:29:47.857Z,52.70
2022-08-11T16:32:23.132Z,53.00
2022-08-11T16:35:14.451Z,52.60
2022-08-11T16:38:02.962Z,52.70
2022-08-11T16:40:31.069Z,53.20
2022-08-11T16:43:18.123Z,53.10
2022-08-11T16:46:04.570Z,53.00
2022-08-11T16:48:38.162Z,52.90
2022-08-11T16:51:08.052Z,53.70
2022-08-11T16:53:46.060Z,53.30
2022-08-11T16:56:30.033Z,53.50
2022-08-11T16:59:14.565Z,53.50
2022-08-11T17:01:46.592Z,53.00
2022-08-11T17:04:58.226Z,53.30
2022-08-11T17:07:48.728Z,53.40
2022-08-11T17:10:57.658Z,53.60
2022-08-11T17:13:56.011Z,53.60
2022-08-11T17:16:32.425Z,53.70
2022-08-11T17:20:41.532Z,53.80
2022-08-11T17:22:44.146Z,54.00
2022-08-11T17:25:13.171Z,53.90
2022-08-11T17:27:43.440Z,54.20
2022-08-11T17:30:12.324Z,54.30
2022-08-11T17:33:06.044Z,54.20
2022-08-11T17:35:39.752Z,54.10
2022-08-11T17:38:20.661Z,54.40
2022-08-11T17:41:13.476Z,54.60
2022-08-11T17:44:07.615Z,54.60
2022-08-11T17:47:00.112Z,54.20
2022-08-11T17:49:37.229Z,54.00
2022-08-11T17:52:26.050Z,53.90
2022-08-11T17:55:16.995Z,54.10
2022-08-11T17:58:22.887Z,54.00
2022-08-11T18:00:52.065Z,54.50
2022-08-11T18:03:32.476Z,53.90
2022-08-11T18:06:04.479Z,54.20
2022-08-11T18:08:53.224Z,54.40
2022-08-11T18:12:09.910Z,54.50
2022-08-11T18:14:52.737Z,54.20
2022-08-11T18:17:38.679Z,54.60
2022-08-11T18:20:25.941Z,54.60
2022-08-11T18:23:15.231Z,54.90
2022-08-11T18:26:07.434Z,55.00
2022-08-11T18:29:04.048Z,55.20
2022-08-11T18:31:53.884Z,56.00
2022-08-11T18:34:56.047Z,57.20
2022-08-11T18:37:49.333Z,58.50
2022-08-11T18:40:45.509Z,57.80
2022-08-11T18:43:35.169Z,57.40
2022-08-11T18:46:27.018Z,57.00
2022-08-11T18:49:21.371Z,57.00
2022-08-11T18:52:11.970Z,58.00
2022-08-11T18:55:01.931Z,57.80
2022-08-11T18:57:54.475Z,57.80
2022-08-11T19:00:42.750Z,58.00
2022-08-11T19:03:32.689Z,58.30
2022-08-11T19:06:38.169Z,58.70
2022-08-11T19:09:32.041Z,58.80
2022-08-11T19:12:19.567Z,59.10
2022-08-11T19:15:09.557Z,59.50
2022-08-11T19:18:00.099Z,59.70
2022-08-11T19:20:49.662Z,60.00
2022-08-11T19:23:52.069Z,60.50
2022-08-11T19:26:40.152Z,60.30
2022-08-11T19:30:07.675Z,60.90
2022-08-11T19:32:35.250Z,61.30
2022-08-11T19:35:22.121Z,62.50
2022-08-11T19:38:09.985Z,61.80
2022-08-11T19:40:58.365Z,63.40
2022-08-11T19:43:48.226Z,63.50
2022-08-11T19:46:38.013Z,62.80
2022-08-11T19:49:25.655Z,63.10
2022-08-11T19:52:12.803Z,62.40
2022-08-11T19:55:02.306Z,62.70
2022-08-11T19:57:50.463Z,62.80
2022-08-11T20:00:40.031Z,63.00
2022-08-11T20:03:29.858Z,63.90
2022-08-11T20:06:21.535Z,63.60
2022-08-11T20:09:09.378Z,64.10
2022-08-11T20:11:59.700Z,63.80
2022-08-11T20:14:50.967Z,64.70
2022-08-11T20:17:39.985Z,64.70
2022-08-11T20:20:27.356Z,65.50
2022-08-11T20:23:16.068Z,66.40
2022-08-11T20:26:27.695Z,66.10
2022-08-11T20:29:13.813Z,66.20
2022-08-11T20:32:04.308Z,65.50
2022-08-11T20:34:57.089Z,65.20
2022-08-11T20:37:50.829Z,66.30
2022-08-11T20:40:43.177Z,66.10
2022-08-11T20:44:06.984Z,67.30
2022-08-11T20:46:45.295Z,66.40
2022-08-11T20:49:45.031Z,65.80
2022-08-11T20:52:41.533Z,65.80
2022-08-11T20:59:13.334Z,66.30
2022-08-11T21:01:46.272Z,66.20
2022-08-11T21:04:35.135Z,67.20
2022-08-11T21:07:28.572Z,68.40
2022-08-11T21:10:23.142Z,67.00
2022-08-11T21:13:26.280Z,68.50
2022-08-11T21:16:25.651Z,69.10
2022-08-11T21:20:00.215Z,69.60
2022-08-11T21:22:35.092Z,69.50
2022-08-11T21:25:22.329Z,69.80
2022-08-11T21:28:10.773Z,69.60
2022-08-11T21:30:58.635Z,69.30
2022-08-11T21:33:49.553Z,70.00
2022-08-11T21:36:37.861Z,69.40
2022-08-11T21:39:26.383Z,71.00
2022-08-11T21:42:15.078Z,71.30
2022-08-11T21:45:03.473Z,72.70
2022-08-11T21:48:01.170Z,72.70
2022-08-11T21:50:47.407Z,73.40
2022-08-11T21:53:34.904Z,73.40
2022-08-11T21:56:26.188Z,74.00
2022-08-11T21:59:16.211Z,73.70
2022-08-11T22:02:04.711Z,74.30
2022-08-11T22:04:56.556Z,73.90
2022-08-11T22:07:43.395Z,74.60
2022-08-11T22:10:42.504Z,75.00
2022-08-11T22:13:31.036Z,75.30
2022-08-11T22:16:18.897Z,75.80
2022-08-11T22:19:09.453Z,75.60
2022-08-11T22:22:02.869Z,76.30
2022-08-11T22:24:54.692Z,76.30
2022-08-11T22:27:41.220Z,77.00
2022-08-11T22:30:30.198Z,76.60
2022-08-11T22:33:25.568Z,76.50
2022-08-11T22:36:17.046Z,76.20
2022-08-11T22:39:06.135Z,76.50
2022-08-11T22:41:52.808Z,76.40
2022-08-11T22:44:47.940Z,77.20
2022-08-11T22:47:40.656Z,76.40
2022-08-11T22:50:39.180Z,77.60
2022-08-11T22:53:58.301Z,77.50
2022-08-11T22:56:38.190Z,76.90
2022-08-11T22:59:26.172Z,77.80
2022-08-11T23:02:13.300Z,78.30
2022-08-11T23:04:59.401Z,78.40
2022-08-11T23:07:50.187Z,78.70
2022-08-11T23:10:39.239Z,78.30
2022-08-11T23:13:26.635Z,78.00
2022-08-11T23:16:14.241Z,78.10
2022-08-11T23:19:00.921Z,78.10
2022-08-11T23:21:47.117Z,78.10
2022-08-11T23:24:33.422Z,78.60
2022-08-11T23:27:21.307Z,78.90
2022-08-11T23:30:09.719Z,78.90
2022-08-11T23:33:03.539Z,79.50
2022-08-11T23:35:55.481Z,79.60
2022-08-11T23:38:42.738Z,80.00
2022-08-11T23:41:29.126Z,79.70
2022-08-11T23:44:15.376Z,80.00
2022-08-11T23:47:07.260Z,80.00
2022-08-11T23:49:56.341Z,80.60
2022-08-11T23:52:48.416Z,80.50
2022-08-11T23:55:41.638Z,81.00
2022-08-11T23:58:30.118Z,81.00
